sensor_id;sensor_type;location;lat;lon;timestamp;P1;durP1;ratioP1;P2;durP2;ratioP2
35646;SDS011;28680;45.642;13.756;2024-01-10T00:00:09;18.77;;;8.65;;
35646;SDS011;28680;45.642;13.756;2024-01-10T00:02:39;17.90;;;8.07;;
35646;SDS011;28680;45.642;13.756;2024-01-10T00:05:14;18.15;;;8.23;;
35646;SDS011;28680;45.642;13.756;2024-01-10T00:07:40;18.45;;;8.30;;
35646;SDS011;28680;45.642;13.756;2024-01-10T00:10:12;18.35;;;8.32;;
35646;SDS011;28680;45.642;13.756;2024-01-10T00:16:16;17.95;;;8.00;;
35646;SDS011;28680;45.642;13.756;2024-01-10T00:19:16;19.23;;;8.38;;
35646;SDS011;28680;45.642;13.756;2024-01-10T00:25:50;16.80;;;7.50;;
35646;SDS011;28680;45.642;13.756;2024-01-10T00:28:25;17.77;;;8.65;;
35646;SDS011;28680;45.642;13.756;2024-01-10T00:30:51;19.73;;;8.18;;
35646;SDS011;28680;45.642;13.756;2024-01-10T00:33:20;19.02;;;7.97;;
35646;SDS011;28680;45.642;13.756;2024-01-10T00:35:52;18.08;;;7.88;;
35646;SDS011;28680;45.642;13.756;2024-01-10T00:38:17;17.67;;;7.78;;
35646;SDS011;28680;45.642;13.756;2024-01-10T00:41:02;15.50;;;7.07;;
35646;SDS011;28680;45.642;13.756;2024-01-10T00:50:17;15.35;;;6.78;;
35646;SDS011;28680;45.642;13.756;2024-01-10T00:59:10;18.00;;;8.25;;
35646;SDS011;28680;45.642;13.756;2024-01-10T01:02:02;14.85;;;7.28;;
35646;SDS011;28680;45.642;13.756;2024-01-10T01:04:28;16.65;;;7.90;;
35646;SDS011;28680;45.642;13.756;2024-01-10T01:06:55;17.27;;;7.85;;
35646;SDS011;28680;45.642;13.756;2024-01-10T01:09:21;17.45;;;7.35;;
35646;SDS011;28680;45.642;13.756;2024-01-10T01:11:47;14.73;;;7.28;;
35646;SDS011;28680;45.642;13.756;2024-01-10T01:14:13;17.13;;;8.05;;
35646;SDS011;28680;45.642;13.756;2024-01-10T01:16:42;15.65;;;7.35;;
35646;SDS011;28680;45.642;13.756;2024-01-10T01:19:17;16.45;;;7.40;;
35646;SDS011;28680;45.642;13.756;2024-01-10T01:21:59;15.30;;;7.50;;
35646;SDS011;28680;45.642;13.756;2024-01-10T01:24:28;16.63;;;7.65;;
35646;SDS011;28680;45.642;13.756;2024-01-10T01:27:09;13.63;;;6.30;;
35646;SDS011;28680;45.642;13.756;2024-01-10T01:29:44;16.85;;;7.53;;
35646;SDS011;28680;45.642;13.756;2024-01-10T01:32:41;14.63;;;6.93;;
35646;SDS011;28680;45.642;13.756;2024-01-10T01:35:12;17.23;;;7.22;;
35646;SDS011;28680;45.642;13.756;2024-01-10T01:38:27;14.85;;;6.75;;
35646;SDS011;28680;45.642;13.756;2024-01-10T01:40:52;15.35;;;7.00;;
35646;SDS011;28680;45.642;13.756;2024-01-10T01:46:21;15.30;;;7.00;;
35646;SDS011;28680;45.642;13.756;2024-01-10T01:48:57;15.00;;;7.40;;
35646;SDS011;28680;45.642;13.756;2024-01-10T01:51:51;16.85;;;7.47;;
35646;SDS011;28680;45.642;13.756;2024-01-10T01:54:18;17.20;;;7.00;;
35646;SDS011;28680;45.642;13.756;2024-01-10T01:56:57;14.95;;;6.88;;
35646;SDS011;28680;45.642;13.756;2024-01-10T02:07:24;15.48;;;7.80;;
35646;SDS011;28680;45.642;13.756;2024-01-10T02:09:59;14.98;;;7.43;;
35646;SDS011;28680;45.642;13.756;2024-01-10T02:12:28;16.35;;;8.05;;
35646;SDS011;28680;45.642;13.756;2024-01-10T02:15:12;14.98;;;6.78;;
35646;SDS011;28680;45.642;13.756;2024-01-10T02:20:38;18.33;;;7.95;;
35646;SDS011;28680;45.642;13.756;2024-01-10T02:23:16;14.35;;;7.18;;
35646;SDS011;28680;45.642;13.756;2024-01-10T02:25:59;15.25;;;7.00;;
35646;SDS011;28680;45.642;13.756;2024-01-10T02:28:25;16.35;;;7.47;;
35646;SDS011;28680;45.642;13.756;2024-01-10T02:31:40;15.23;;;7.63;;
35646;SDS011;28680;45.642;13.756;2024-01-10T02:34:47;14.88;;;7.00;;
35646;SDS011;28680;45.642;13.756;2024-01-10T02:37:13;14.90;;;7.55;;
35646;SDS011;28680;45.642;13.756;2024-01-10T02:39:39;15.85;;;7.45;;
35646;SDS011;28680;45.642;13.756;2024-01-10T02:42:17;15.20;;;7.70;;
35646;SDS011;28680;45.642;13.756;2024-01-10T02:44:50;18.30;;;7.90;;
35646;SDS011;28680;45.642;13.756;2024-01-10T02:47:15;20.58;;;9.02;;
35646;SDS011;28680;45.642;13.756;2024-01-10T02:50:00;14.85;;;7.65;;
35646;SDS011;28680;45.642;13.756;2024-01-10T02:55:42;12.68;;;6.50;;
35646;SDS011;28680;45.642;13.756;2024-01-10T02:58:09;17.42;;;8.10;;
35646;SDS011;28680;45.642;13.756;2024-01-10T03:00:50;12.98;;;6.13;;
35646;SDS011;28680;45.642;13.756;2024-01-10T03:03:22;16.48;;;8.35;;
35646;SDS011;28680;45.642;13.756;2024-01-10T03:05:51;17.40;;;7.95;;
35646;SDS011;28680;45.642;13.756;2024-01-10T03:08:17;22.00;;;8.82;;
35646;SDS011;28680;45.642;13.756;2024-01-10T03:10:51;17.75;;;8.00;;
35646;SDS011;28680;45.642;13.756;2024-01-10T03:13:32;20.23;;;9.30;;
35646;SDS011;28680;45.642;13.756;2024-01-10T03:16:01;20.17;;;8.65;;
35646;SDS011;28680;45.642;13.756;2024-01-10T03:24:04;22.00;;;8.63;;
35646;SDS011;28680;45.642;13.756;2024-01-10T03:26:43;24.77;;;10.18;;
35646;SDS011;28680;45.642;13.756;2024-01-10T03:29:24;20.23;;;9.15;;
35646;SDS011;28680;45.642;13.756;2024-01-10T03:32:08;19.27;;;9.38;;
35646;SDS011;28680;45.642;13.756;2024-01-10T03:37:41;18.50;;;8.13;;
35646;SDS011;28680;45.642;13.756;2024-01-10T03:40:16;17.33;;;8.60;;
35646;SDS011;28680;45.642;13.756;2024-01-10T03:42:48;18.25;;;8.50;;
35646;SDS011;28680;45.642;13.756;2024-01-10T03:45:26;22.10;;;9.20;;
35646;SDS011;28680;45.642;13.756;2024-01-10T03:48:24;21.73;;;9.20;;
35646;SDS011;28680;45.642;13.756;2024-01-10T03:50:59;20.08;;;8.82;;
35646;SDS011;28680;45.642;13.756;2024-01-10T03:53:35;18.80;;;9.35;;
35646;SDS011;28680;45.642;13.756;2024-01-10T03:56:04;18.15;;;8.02;;
35646;SDS011;28680;45.642;13.756;2024-01-10T03:59:13;21.73;;;8.75;;
35646;SDS011;28680;45.642;13.756;2024-01-10T04:01:48;18.55;;;8.75;;
35646;SDS011;28680;45.642;13.756;2024-01-10T04:07:16;17.90;;;8.27;;
35646;SDS011;28680;45.642;13.756;2024-01-10T04:22:56;19.05;;;7.80;;
35646;SDS011;28680;45.642;13.756;2024-01-10T04:25:22;20.65;;;8.68;;
35646;SDS011;28680;45.642;13.756;2024-01-10T04:31:00;18.90;;;8.30;;
35646;SDS011;28680;45.642;13.756;2024-01-10T04:36:06;19.85;;;8.75;;
35646;SDS011;28680;45.642;13.756;2024-01-10T04:38:47;20.95;;;8.52;;
35646;SDS011;28680;45.642;13.756;2024-01-10T04:44:14;16.98;;;8.18;;
35646;SDS011;28680;45.642;13.756;2024-01-10T04:46:43;17.52;;;8.02;;
35646;SDS011;28680;45.642;13.756;2024-01-10T04:52:36;16.38;;;8.07;;
35646;SDS011;28680;45.642;13.756;2024-01-10T04:55:56;17.63;;;7.80;;
35646;SDS011;28680;45.642;13.756;2024-01-10T05:01:10;18.40;;;8.07;;
35646;SDS011;28680;45.642;13.756;2024-01-10T05:03:51;19.40;;;7.95;;
35646;SDS011;28680;45.642;13.756;2024-01-10T05:06:32;19.98;;;8.23;;
35646;SDS011;28680;45.642;13.756;2024-01-10T05:09:10;18.25;;;7.95;;
35646;SDS011;28680;45.642;13.756;2024-01-10T05:20:54;19.42;;;8.10;;
35646;SDS011;28680;45.642;13.756;2024-01-10T05:23:20;15.23;;;6.75;;
35646;SDS011;28680;45.642;13.756;2024-01-10T05:26:43;17.83;;;8.30;;
35646;SDS011;28680;45.642;13.756;2024-01-10T05:29:12;17.63;;;7.38;;
35646;SDS011;28680;45.642;13.756;2024-01-10T05:31:47;17.55;;;7.63;;
35646;SDS011;28680;45.642;13.756;2024-01-10T05:34:19;16.67;;;7.55;;
35646;SDS011;28680;45.642;13.756;2024-01-10T05:36:51;18.98;;;7.85;;
35646;SDS011;28680;45.642;13.756;2024-01-10T05:39:23;18.50;;;8.10;;
35646;SDS011;28680;45.642;13.756;2024-01-10T05:42:00;17.10;;;7.80;;
35646;SDS011;28680;45.642;13.756;2024-01-10T05:44:39;17.88;;;7.72;;
35646;SDS011;28680;45.642;13.756;2024-01-10T05:50:54;16.48;;;7.38;;
35646;SDS011;28680;45.642;13.756;2024-01-10T05:53:20;17.90;;;7.78;;
35646;SDS011;28680;45.642;13.756;2024-01-10T05:59:12;15.63;;;7.32;;
35646;SDS011;28680;45.642;13.756;2024-01-10T06:01:38;15.55;;;6.88;;
35646;SDS011;28680;45.642;13.756;2024-01-10T06:04:04;17.73;;;8.82;;
35646;SDS011;28680;45.642;13.756;2024-01-10T06:06:34;16.40;;;7.18;;
35646;SDS011;28680;45.642;13.756;2024-01-10T06:09:15;16.90;;;7.35;;
35646;SDS011;28680;45.642;13.756;2024-01-10T06:11:56;16.80;;;7.25;;
35646;SDS011;28680;45.642;13.756;2024-01-10T06:14:24;20.73;;;7.72;;
35646;SDS011;28680;45.642;13.756;2024-01-10T06:16:50;18.70;;;7.88;;
35646;SDS011;28680;45.642;13.756;2024-01-10T06:22:11;18.17;;;7.80;;
35646;SDS011;28680;45.642;13.756;2024-01-10T06:24:53;17.70;;;7.40;;
35646;SDS011;28680;45.642;13.756;2024-01-10T06:27:50;18.13;;;8.52;;
35646;SDS011;28680;45.642;13.756;2024-01-10T06:30:45;16.85;;;8.20;;
35646;SDS011;28680;45.642;13.756;2024-01-10T06:33:11;17.92;;;7.88;;
35646;SDS011;28680;45.642;13.756;2024-01-10T06:38:16;18.00;;;7.50;;
35646;SDS011;28680;45.642;13.756;2024-01-10T06:40:48;18.85;;;8.70;;
35646;SDS011;28680;45.642;13.756;2024-01-10T06:46:15;17.58;;;7.78;;
35646;SDS011;28680;45.642;13.756;2024-01-10T06:51:42;18.85;;;7.80;;
35646;SDS011;28680;45.642;13.756;2024-01-10T06:54:17;19.58;;;8.88;;
35646;SDS011;28680;45.642;13.756;2024-01-10T06:56:50;18.90;;;8.50;;
35646;SDS011;28680;45.642;13.756;2024-01-10T06:59:42;18.33;;;8.05;;
35646;SDS011;28680;45.642;13.756;2024-01-10T07:02:12;17.13;;;8.15;;
35646;SDS011;28680;45.642;13.756;2024-01-10T07:04:41;20.85;;;8.63;;
35646;SDS011;28680;45.642;13.756;2024-01-10T07:07:13;16.75;;;7.70;;
35646;SDS011;28680;45.642;13.756;2024-01-10T07:09:47;21.10;;;8.43;;
35646;SDS011;28680;45.642;13.756;2024-01-10T07:12:25;21.50;;;8.82;;
35646;SDS011;28680;45.642;13.756;2024-01-10T07:15:19;18.20;;;8.13;;
35646;SDS011;28680;45.642;13.756;2024-01-10T07:18:11;15.30;;;7.35;;
35646;SDS011;28680;45.642;13.756;2024-01-10T07:23:16;17.55;;;7.47;;
35646;SDS011;28680;45.642;13.756;2024-01-10T07:26:06;16.05;;;7.93;;
35646;SDS011;28680;45.642;13.756;2024-01-10T07:28:44;16.25;;;7.25;;
35646;SDS011;28680;45.642;13.756;2024-01-10T07:31:11;17.95;;;7.72;;
35646;SDS011;28680;45.642;13.756;2024-01-10T07:33:37;19.55;;;8.20;;
35646;SDS011;28680;45.642;13.756;2024-01-10T07:36:25;16.33;;;7.72;;
35646;SDS011;28680;45.642;13.756;2024-01-10T07:38:56;19.40;;;9.18;;
35646;SDS011;28680;45.642;13.756;2024-01-10T07:41:22;19.45;;;8.55;;
35646;SDS011;28680;45.642;13.756;2024-01-10T07:44:02;16.92;;;8.23;;
35646;SDS011;28680;45.642;13.756;2024-01-10T07:46:28;15.60;;;8.10;;
35646;SDS011;28680;45.642;13.756;2024-01-10T07:49:20;18.73;;;8.30;;
35646;SDS011;28680;45.642;13.756;2024-01-10T07:51:50;17.77;;;7.65;;
35646;SDS011;28680;45.642;13.756;2024-01-10T07:54:19;18.75;;;8.20;;
35646;SDS011;28680;45.642;13.756;2024-01-10T07:56:48;17.27;;;7.68;;
35646;SDS011;28680;45.642;13.756;2024-01-10T07:59:16;19.70;;;8.30;;
35646;SDS011;28680;45.642;13.756;2024-01-10T08:05:11;18.60;;;9.00;;
35646;SDS011;28680;45.642;13.756;2024-01-10T08:07:41;17.80;;;8.68;;
35646;SDS011;28680;45.642;13.756;2024-01-10T08:10:10;16.77;;;7.22;;
35646;SDS011;28680;45.642;13.756;2024-01-10T08:12:36;20.77;;;8.43;;
35646;SDS011;28680;45.642;13.756;2024-01-10T08:15:04;16.77;;;7.35;;
35646;SDS011;28680;45.642;13.756;2024-01-10T08:17:31;15.13;;;7.45;;
35646;SDS011;28680;45.642;13.756;2024-01-10T08:19:58;14.93;;;7.55;;
35646;SDS011;28680;45.642;13.756;2024-01-10T08:22:25;14.32;;;7.03;;
35646;SDS011;28680;45.642;13.756;2024-01-10T08:24:51;16.17;;;6.85;;
35646;SDS011;28680;45.642;13.756;2024-01-10T08:27:17;17.23;;;7.68;;
35646;SDS011;28680;45.642;13.756;2024-01-10T08:29:43;14.57;;;7.38;;
35646;SDS011;28680;45.642;13.756;2024-01-10T08:32:10;15.45;;;7.43;;
35646;SDS011;28680;45.642;13.756;2024-01-10T08:34:36;15.93;;;7.10;;
35646;SDS011;28680;45.642;13.756;2024-01-10T08:37:11;15.05;;;7.40;;
35646;SDS011;28680;45.642;13.756;2024-01-10T08:39:42;13.93;;;7.25;;
35646;SDS011;28680;45.642;13.756;2024-01-10T08:42:09;13.32;;;6.30;;
35646;SDS011;28680;45.642;13.756;2024-01-10T08:44:38;11.38;;;5.88;;
35646;SDS011;28680;45.642;13.756;2024-01-10T08:47:07;17.50;;;6.55;;
35646;SDS011;28680;45.642;13.756;2024-01-10T08:49:35;14.70;;;6.57;;
35646;SDS011;28680;45.642;13.756;2024-01-10T08:52:01;14.15;;;6.60;;
35646;SDS011;28680;45.642;13.756;2024-01-10T08:54:30;11.85;;;6.00;;
35646;SDS011;28680;45.642;13.756;2024-01-10T08:56:56;11.10;;;6.40;;
35646;SDS011;28680;45.642;13.756;2024-01-10T08:59:23;13.07;;;6.72;;
35646;SDS011;28680;45.642;13.756;2024-01-10T09:01:49;12.30;;;6.65;;
35646;SDS011;28680;45.642;13.756;2024-01-10T09:04:15;12.20;;;5.70;;
35646;SDS011;28680;45.642;13.756;2024-01-10T09:06:41;13.73;;;7.15;;
35646;SDS011;28680;45.642;13.756;2024-01-10T09:09:07;18.25;;;7.15;;
35646;SDS011;28680;45.642;13.756;2024-01-10T09:11:33;13.73;;;6.43;;
35646;SDS011;28680;45.642;13.756;2024-01-10T09:13:59;10.07;;;5.30;;
35646;SDS011;28680;45.642;13.756;2024-01-10T09:16:25;13.18;;;6.53;;
35646;SDS011;28680;45.642;13.756;2024-01-10T09:18:52;12.75;;;6.07;;
35646;SDS011;28680;45.642;13.756;2024-01-10T09:21:21;12.45;;;5.65;;
35646;SDS011;28680;45.642;13.756;2024-01-10T09:24:08;14.05;;;7.15;;
35646;SDS011;28680;45.642;13.756;2024-01-10T09:26:36;10.85;;;5.70;;
35646;SDS011;28680;45.642;13.756;2024-01-10T09:29:02;11.60;;;6.20;;
35646;SDS011;28680;45.642;13.756;2024-01-10T09:31:28;13.77;;;6.40;;
35646;SDS011;28680;45.642;13.756;2024-01-10T09:33:53;15.20;;;6.55;;
35646;SDS011;28680;45.642;13.756;2024-01-10T09:36:19;15.10;;;7.00;;
35646;SDS011;28680;45.642;13.756;2024-01-10T09:38:45;11.43;;;6.07;;
35646;SDS011;28680;45.642;13.756;2024-01-10T09:41:14;11.75;;;5.70;;
35646;SDS011;28680;45.642;13.756;2024-01-10T09:47:11;12.98;;;6.90;;
35646;SDS011;28680;45.642;13.756;2024-01-10T09:50:22;12.98;;;6.13;;
35646;SDS011;28680;45.642;13.756;2024-01-10T09:52:52;12.52;;;6.40;;
35646;SDS011;28680;45.642;13.756;2024-01-10T09:55:34;12.57;;;6.40;;
35646;SDS011;28680;45.642;13.756;2024-01-10T09:58:04;13.02;;;6.65;;
35646;SDS011;28680;45.642;13.756;2024-01-10T10:00:43;11.27;;;5.70;;
35646;SDS011;28680;45.642;13.756;2024-01-10T10:03:18;13.50;;;6.60;;
35646;SDS011;28680;45.642;13.756;2024-01-10T10:05:52;15.20;;;6.25;;
35646;SDS011;28680;45.642;13.756;2024-01-10T10:08:18;16.75;;;6.30;;
35646;SDS011;28680;45.642;13.756;2024-01-10T10:10:50;11.95;;;6.07;;
35646;SDS011;28680;45.642;13.756;2024-01-10T10:13:23;11.93;;;6.05;;
35646;SDS011;28680;45.642;13.756;2024-01-10T10:18:55;11.68;;;6.07;;
35646;SDS011;28680;45.642;13.756;2024-01-10T10:21:24;12.20;;;6.35;;
35646;SDS011;28680;45.642;13.756;2024-01-10T10:24:00;13.35;;;6.03;;
35646;SDS011;28680;45.642;13.756;2024-01-10T10:26:27;11.30;;;5.75;;
35646;SDS011;28680;45.642;13.756;2024-01-10T10:28:54;11.73;;;5.85;;
35646;SDS011;28680;45.642;13.756;2024-01-10T10:31:21;10.77;;;5.97;;
35646;SDS011;28680;45.642;13.756;2024-01-10T10:33:48;10.07;;;5.50;;
35646;SDS011;28680;45.642;13.756;2024-01-10T10:36:16;10.88;;;5.70;;
35646;SDS011;28680;45.642;13.756;2024-01-10T10:38:42;12.25;;;6.10;;
35646;SDS011;28680;45.642;13.756;2024-01-10T10:41:09;11.52;;;5.65;;
35646;SDS011;28680;45.642;13.756;2024-01-10T10:43:38;12.20;;;5.47;;
35646;SDS011;28680;45.642;13.756;2024-01-10T10:46:05;11.25;;;5.50;;
35646;SDS011;28680;45.642;13.756;2024-01-10T10:48:32;11.60;;;6.20;;
35646;SDS011;28680;45.642;13.756;2024-01-10T10:51:05;10.88;;;5.68;;
35646;SDS011;28680;45.642;13.756;2024-01-10T10:53:32;11.23;;;5.88;;
35646;SDS011;28680;45.642;13.756;2024-01-10T10:56:03;12.73;;;6.25;;
35646;SDS011;28680;45.642;13.756;2024-01-10T10:58:32;10.35;;;5.72;;
35646;SDS011;28680;45.642;13.756;2024-01-10T11:01:00;10.98;;;5.72;;
35646;SDS011;28680;45.642;13.756;2024-01-10T11:03:30;10.95;;;5.60;;
35646;SDS011;28680;45.642;13.756;2024-01-10T11:05:58;11.75;;;5.72;;
35646;SDS011;28680;45.642;13.756;2024-01-10T11:08:26;10.55;;;5.93;;
35646;SDS011;28680;45.642;13.756;2024-01-10T11:10:54;12.43;;;6.00;;
35646;SDS011;28680;45.642;13.756;2024-01-10T11:13:26;11.68;;;5.90;;
35646;SDS011;28680;45.642;13.756;2024-01-10T11:16:02;13.05;;;6.03;;
35646;SDS011;28680;45.642;13.756;2024-01-10T11:24:32;11.18;;;5.72;;
35646;SDS011;28680;45.642;13.756;2024-01-10T11:27:09;10.05;;;4.88;;
35646;SDS011;28680;45.642;13.756;2024-01-10T11:29:37;13.95;;;6.28;;
35646;SDS011;28680;45.642;13.756;2024-01-10T11:32:05;11.30;;;5.32;;
35646;SDS011;28680;45.642;13.756;2024-01-10T11:37:20;12.07;;;6.00;;
35646;SDS011;28680;45.642;13.756;2024-01-10T11:39:46;9.60;;;5.38;;
35646;SDS011;28680;45.642;13.756;2024-01-10T11:42:12;11.57;;;6.00;;
35646;SDS011;28680;45.642;13.756;2024-01-10T11:44:48;13.02;;;6.13;;
35646;SDS011;28680;45.642;13.756;2024-01-10T11:47:15;9.48;;;4.90;;
35646;SDS011;28680;45.642;13.756;2024-01-10T11:50:06;9.75;;;5.57;;
35646;SDS011;28680;45.642;13.756;2024-01-10T11:52:36;12.45;;;5.93;;
35646;SDS011;28680;45.642;13.756;2024-01-10T11:55:05;13.55;;;5.68;;
35646;SDS011;28680;45.642;13.756;2024-01-10T11:57:33;12.48;;;5.43;;
35646;SDS011;28680;45.642;13.756;2024-01-10T11:59:59;12.18;;;6.20;;
35646;SDS011;28680;45.642;13.756;2024-01-10T12:02:25;10.55;;;5.60;;
35646;SDS011;28680;45.642;13.756;2024-01-10T12:04:53;8.35;;;5.20;;
35646;SDS011;28680;45.642;13.756;2024-01-10T12:07:19;11.18;;;5.90;;
35646;SDS011;28680;45.642;13.756;2024-01-10T12:09:46;11.38;;;5.60;;
35646;SDS011;28680;45.642;13.756;2024-01-10T12:12:13;13.25;;;7.30;;
35646;SDS011;28680;45.642;13.756;2024-01-10T12:14:40;12.25;;;5.93;;
35646;SDS011;28680;45.642;13.756;2024-01-10T12:17:11;9.77;;;5.45;;
35646;SDS011;28680;45.642;13.756;2024-01-10T12:19:38;12.73;;;5.78;;
35646;SDS011;28680;45.642;13.756;2024-01-10T12:22:05;11.52;;;5.63;;
35646;SDS011;28680;45.642;13.756;2024-01-10T12:24:38;13.90;;;6.22;;
35646;SDS011;28680;45.642;13.756;2024-01-10T12:27:10;12.95;;;6.25;;
35646;SDS011;28680;45.642;13.756;2024-01-10T12:29:37;10.52;;;5.82;;
35646;SDS011;28680;45.642;13.756;2024-01-10T12:32:07;11.32;;;6.15;;
35646;SDS011;28680;45.642;13.756;2024-01-10T12:34:37;9.93;;;5.75;;
35646;SDS011;28680;45.642;13.756;2024-01-10T12:37:03;11.60;;;6.00;;
35646;SDS011;28680;45.642;13.756;2024-01-10T12:39:30;9.80;;;5.43;;
35646;SDS011;28680;45.642;13.756;2024-01-10T12:41:57;12.45;;;5.85;;
35646;SDS011;28680;45.642;13.756;2024-01-10T12:44:26;10.30;;;5.18;;
35646;SDS011;28680;45.642;13.756;2024-01-10T12:46:53;11.98;;;6.00;;
35646;SDS011;28680;45.642;13.756;2024-01-10T12:49:19;15.75;;;6.95;;
35646;SDS011;28680;45.642;13.756;2024-01-10T12:51:47;13.70;;;6.38;;
35646;SDS011;28680;45.642;13.756;2024-01-10T12:54:14;12.32;;;6.15;;
35646;SDS011;28680;45.642;13.756;2024-01-10T12:56:42;12.70;;;6.43;;
35646;SDS011;28680;45.642;13.756;2024-01-10T12:59:08;11.93;;;5.78;;
35646;SDS011;28680;45.642;13.756;2024-01-10T13:01:34;11.30;;;6.00;;
35646;SDS011;28680;45.642;13.756;2024-01-10T13:04:00;12.50;;;5.53;;
35646;SDS011;28680;45.642;13.756;2024-01-10T13:06:26;13.07;;;5.90;;
35646;SDS011;28680;45.642;13.756;2024-01-10T13:08:53;10.40;;;5.50;;
35646;SDS011;28680;45.642;13.756;2024-01-10T13:11:19;14.43;;;7.03;;
35646;SDS011;28680;45.642;13.756;2024-01-10T13:13:45;9.88;;;5.65;;
35646;SDS011;28680;45.642;13.756;2024-01-10T13:16:14;13.23;;;6.05;;
35646;SDS011;28680;45.642;13.756;2024-01-10T13:19:22;11.45;;;6.15;;
35646;SDS011;28680;45.642;13.756;2024-01-10T13:21:48;11.75;;;6.07;;
35646;SDS011;28680;45.642;13.756;2024-01-10T13:24:14;11.63;;;5.70;;
35646;SDS011;28680;45.642;13.756;2024-01-10T13:26:56;11.88;;;5.63;;
35646;SDS011;28680;45.642;13.756;2024-01-10T13:29:36;11.15;;;6.15;;
35646;SDS011;28680;45.642;13.756;2024-01-10T13:32:04;15.43;;;7.25;;
35646;SDS011;28680;45.642;13.756;2024-01-10T13:38:35;11.13;;;5.75;;
35646;SDS011;28680;45.642;13.756;2024-01-10T13:41:01;11.95;;;5.93;;
35646;SDS011;28680;45.642;13.756;2024-01-10T13:43:35;11.02;;;5.85;;
35646;SDS011;28680;45.642;13.756;2024-01-10T13:46:01;11.90;;;5.88;;
35646;SDS011;28680;45.642;13.756;2024-01-10T13:55:44;11.30;;;5.38;;
35646;SDS011;28680;45.642;13.756;2024-01-10T14:05:31;9.80;;;5.40;;
35646;SDS011;28680;45.642;13.756;2024-01-10T14:07:57;10.32;;;5.57;;
35646;SDS011;28680;45.642;13.756;2024-01-10T14:10:42;11.48;;;5.50;;
35646;SDS011;28680;45.642;13.756;2024-01-10T14:13:08;10.73;;;5.32;;
35646;SDS011;28680;45.642;13.756;2024-01-10T14:15:34;13.32;;;6.60;;
35646;SDS011;28680;45.642;13.756;2024-01-10T14:18:00;13.77;;;6.78;;
35646;SDS011;28680;45.642;13.756;2024-01-10T14:20:35;10.70;;;5.93;;
35646;SDS011;28680;45.642;13.756;2024-01-10T14:23:01;12.05;;;5.75;;
35646;SDS011;28680;45.642;13.756;2024-01-10T14:25:27;11.70;;;5.63;;
35646;SDS011;28680;45.642;13.756;2024-01-10T14:27:53;12.10;;;5.65;;
35646;SDS011;28680;45.642;13.756;2024-01-10T14:30:19;11.32;;;6.05;;
35646;SDS011;28680;45.642;13.756;2024-01-10T14:32:48;10.43;;;5.95;;
35646;SDS011;28680;45.642;13.756;2024-01-10T14:37:45;11.38;;;5.85;;
35646;SDS011;28680;45.642;13.756;2024-01-10T14:40:11;11.45;;;5.70;;
35646;SDS011;28680;45.642;13.756;2024-01-10T14:42:40;11.40;;;5.50;;
35646;SDS011;28680;45.642;13.756;2024-01-10T14:45:06;10.85;;;5.97;;
35646;SDS011;28680;45.642;13.756;2024-01-10T14:47:33;11.15;;;5.70;;
35646;SDS011;28680;45.642;13.756;2024-01-10T14:50:00;12.30;;;6.18;;
35646;SDS011;28680;45.642;13.756;2024-01-10T14:52:26;11.32;;;6.03;;
35646;SDS011;28680;45.642;13.756;2024-01-10T14:54:54;12.50;;;6.00;;
35646;SDS011;28680;45.642;13.756;2024-01-10T14:57:20;11.50;;;5.63;;
35646;SDS011;28680;45.642;13.756;2024-01-10T15:02:42;12.77;;;6.00;;
35646;SDS011;28680;45.642;13.756;2024-01-10T15:05:17;11.93;;;5.80;;
35646;SDS011;28680;45.642;13.756;2024-01-10T15:13:41;11.60;;;5.95;;
35646;SDS011;28680;45.642;13.756;2024-01-10T15:16:08;13.65;;;6.20;;
35646;SDS011;28680;45.642;13.756;2024-01-10T15:18:36;12.23;;;6.13;;
35646;SDS011;28680;45.642;13.756;2024-01-10T15:21:02;15.73;;;6.57;;
35646;SDS011;28680;45.642;13.756;2024-01-10T15:23:30;12.50;;;5.80;;
35646;SDS011;28680;45.642;13.756;2024-01-10T15:25:56;12.98;;;6.25;;
35646;SDS011;28680;45.642;13.756;2024-01-10T15:28:22;14.48;;;6.22;;
35646;SDS011;28680;45.642;13.756;2024-01-10T15:30:48;14.63;;;6.55;;
35646;SDS011;28680;45.642;13.756;2024-01-10T15:33:14;13.05;;;6.53;;
35646;SDS011;28680;45.642;13.756;2024-01-10T15:35:39;11.35;;;5.68;;
35646;SDS011;28680;45.642;13.756;2024-01-10T15:38:05;11.88;;;6.07;;
35646;SDS011;28680;45.642;13.756;2024-01-10T15:40:31;12.48;;;6.13;;
35646;SDS011;28680;45.642;13.756;2024-01-10T15:42:57;13.77;;;6.40;;
35646;SDS011;28680;45.642;13.756;2024-01-10T15:45:23;13.93;;;6.50;;
35646;SDS011;28680;45.642;13.756;2024-01-10T15:47:49;12.85;;;6.65;;
35646;SDS011;28680;45.642;13.756;2024-01-10T15:50:15;11.98;;;6.85;;
35646;SDS011;28680;45.642;13.756;2024-01-10T15:52:41;12.50;;;6.57;;
35646;SDS011;28680;45.642;13.756;2024-01-10T15:55:09;12.68;;;6.57;;
35646;SDS011;28680;45.642;13.756;2024-01-10T15:57:35;13.40;;;6.72;;
35646;SDS011;28680;45.642;13.756;2024-01-10T16:00:00;13.88;;;6.35;;
35646;SDS011;28680;45.642;13.756;2024-01-10T16:02:29;14.68;;;6.15;;
35646;SDS011;28680;45.642;13.756;2024-01-10T16:04:56;12.70;;;5.80;;
35646;SDS011;28680;45.642;13.756;2024-01-10T16:07:22;14.85;;;6.80;;
35646;SDS011;28680;45.642;13.756;2024-01-10T16:09:49;14.98;;;6.18;;
35646;SDS011;28680;45.642;13.756;2024-01-10T16:12:15;15.88;;;6.82;;
35646;SDS011;28680;45.642;13.756;2024-01-10T16:14:41;15.43;;;6.80;;
35646;SDS011;28680;45.642;13.756;2024-01-10T16:17:07;14.02;;;6.35;;
35646;SDS011;28680;45.642;13.756;2024-01-10T16:19:33;12.63;;;6.15;;
35646;SDS011;28680;45.642;13.756;2024-01-10T16:22:00;14.00;;;6.53;;
35646;SDS011;28680;45.642;13.756;2024-01-10T16:24:26;13.35;;;6.38;;
35646;SDS011;28680;45.642;13.756;2024-01-10T16:26:52;12.90;;;6.22;;
35646;SDS011;28680;45.642;13.756;2024-01-10T16:29:18;13.30;;;6.68;;
35646;SDS011;28680;45.642;13.756;2024-01-10T16:31:44;18.38;;;6.88;;
35646;SDS011;28680;45.642;13.756;2024-01-10T16:34:10;16.90;;;6.43;;
35646;SDS011;28680;45.642;13.756;2024-01-10T16:36:36;18.08;;;6.93;;
35646;SDS011;28680;45.642;13.756;2024-01-10T16:39:02;14.23;;;6.15;;
35646;SDS011;28680;45.642;13.756;2024-01-10T16:41:28;14.82;;;6.57;;
35646;SDS011;28680;45.642;13.756;2024-01-10T16:43:54;14.93;;;6.18;;
35646;SDS011;28680;45.642;13.756;2024-01-10T16:46:20;11.70;;;6.15;;
35646;SDS011;28680;45.642;13.756;2024-01-10T16:48:46;15.02;;;6.78;;
35646;SDS011;28680;45.642;13.756;2024-01-10T16:51:12;14.60;;;6.43;;
35646;SDS011;28680;45.642;13.756;2024-01-10T16:53:39;19.13;;;7.60;;
35646;SDS011;28680;45.642;13.756;2024-01-10T16:56:05;16.70;;;7.65;;
35646;SDS011;28680;45.642;13.756;2024-01-10T16:58:32;14.20;;;6.75;;
35646;SDS011;28680;45.642;13.756;2024-01-10T17:00:58;14.65;;;7.00;;
35646;SDS011;28680;45.642;13.756;2024-01-10T17:03:24;16.02;;;7.63;;
35646;SDS011;28680;45.642;13.756;2024-01-10T17:05:50;13.93;;;7.03;;
35646;SDS011;28680;45.642;13.756;2024-01-10T17:08:16;16.33;;;7.13;;
35646;SDS011;28680;45.642;13.756;2024-01-10T17:10:41;13.25;;;6.75;;
35646;SDS011;28680;45.642;13.756;2024-01-10T17:13:07;14.77;;;6.97;;
35646;SDS011;28680;45.642;13.756;2024-01-10T17:15:33;14.32;;;7.50;;
35646;SDS011;28680;45.642;13.756;2024-01-10T17:17:59;13.52;;;6.68;;
35646;SDS011;28680;45.642;13.756;2024-01-10T17:20:25;13.77;;;7.07;;